sensor_id;sensor_type;location;lat;lon;timestamp;pressure;altitude;pressure_sealevel;temperature;humidity
76815;BME280;65768;49.906;19.384;2023-08-06T00:02:08;96895.73;;;21.74;85.01
76815;BME280;65768;49.906;19.384;2023-08-06T00:04:37;96863.45;;;21.73;84.85
76815;BME280;65768;49.906;19.384;2023-08-06T00:07:06;96839.52;;;21.73;84.55
76815;BME280;65768;49.906;19.384;2023-08-06T00:09:39;96797.98;;;21.58;85.04
76815;BME280;65768;49.906;19.384;2023-08-06T00:12:07;96848.44;;;21.64;84.96
76815;BME280;65768;49.906;19.384;2023-08-06T00:14:37;96835.08;;;21.65;85.14
76815;BME280;65768;49.906;19.384;2023-08-06T00:17:05;96833.83;;;21.68;84.68
76815;BME280;65768;49.906;19.384;2023-08-06T00:19:33;96851.94;;;21.68;84.68
76815;BME280;65768;49.906;19.384;2023-08-06T00:22:02;96826.91;;;21.52;85.05
76815;BME280;65768;49.906;19.384;2023-08-06T00:24:31;96830.70;;;21.46;85.85
76815;BME280;65768;49.906;19.384;2023-08-06T00:27:02;96821.54;;;21.47;85.75
76815;BME280;65768;49.906;19.384;2023-08-06T00:29:31;96800.86;;;21.16;87.27
76815;BME280;65768;49.906;19.384;2023-08-06T00:32:00;96792.55;;;21.27;87.33
76815;BME280;65768;49.906;19.384;2023-08-06T00:34:29;96815.93;;;21.36;86.90
76815;BME280;65768;49.906;19.384;2023-08-06T00:36:57;96843.71;;;21.47;86.47
76815;BME280;65768;49.906;19.384;2023-08-06T00:39:28;96843.55;;;21.58;85.46
76815;BME280;65768;49.906;19.384;2023-08-06T00:41:56;96854.54;;;21.69;85.25
76815;BME280;65768;49.906;19.384;2023-08-06T00:44:30;96855.63;;;21.74;84.81
76815;BME280;65768;49.906;19.384;2023-08-06T00:46:59;96851.25;;;21.79;84.32
76815;BME280;65768;49.906;19.384;2023-08-06T00:49:29;96851.73;;;21.82;84.22
76815;BME280;65768;49.906;19.384;2023-08-06T00:51:58;96835.06;;;21.79;84.03
76815;BME280;65768;49.906;19.384;2023-08-06T00:54:27;96819.14;;;21.65;84.56
76815;BME280;65768;49.906;19.384;2023-08-06T00:56:56;96822.30;;;21.68;84.77
76815;BME280;65768;49.906;19.384;2023-08-06T00:59:26;96824.77;;;21.68;84.66
76815;BME280;65768;49.906;19.384;2023-08-06T01:01:54;96822.91;;;21.72;84.45
76815;BME280;65768;49.906;19.384;2023-08-06T01:04:25;96806.84;;;21.71;84.11
76815;BME280;65768;49.906;19.384;2023-08-06T01:13:38;96759.73;;;21.51;84.77
76815;BME280;65768;49.906;19.384;2023-08-06T01:16:12;96759.24;;;21.56;84.93
76815;BME280;65768;49.906;19.384;2023-08-06T01:18:42;96748.81;;;21.61;84.71
76815;BME280;65768;49.906;19.384;2023-08-06T01:21:17;96749.54;;;21.58;84.77
76815;BME280;65768;49.906;19.384;2023-08-06T01:23:47;96758.79;;;21.63;84.85
76815;BME280;65768;49.906;19.384;2023-08-06T01:26:44;96755.60;;;21.68;84.55
76815;BME280;65768;49.906;19.384;2023-08-06T01:29:35;96762.95;;;21.72;84.36
76815;BME280;65768;49.906;19.384;2023-08-06T01:32:10;96751.20;;;21.70;84.47
76815;BME280;65768;49.906;19.384;2023-08-06T01:34:43;96760.27;;;21.70;84.48
76815;BME280;65768;49.906;19.384;2023-08-06T01:37:13;96763.17;;;21.71;84.26
76815;BME280;65768;49.906;19.384;2023-08-06T01:39:44;96759.50;;;21.71;84.36
76815;BME280;65768;49.906;19.384;2023-08-06T01:42:14;96756.45;;;21.71;84.32
76815;BME280;65768;49.906;19.384;2023-08-06T01:44:42;96749.38;;;21.73;84.19
76815;BME280;65768;49.906;19.384;2023-08-06T01:47:11;96745.29;;;21.76;84.31
76815;BME280;65768;49.906;19.384;2023-08-06T01:49:40;96744.42;;;21.79;84.22
76815;BME280;65768;49.906;19.384;2023-08-06T01:52:09;96740.88;;;21.79;83.86
76815;BME280;65768;49.906;19.384;2023-08-06T01:54:37;96732.80;;;21.62;84.35
76815;BME280;65768;49.906;19.384;2023-08-06T01:57:05;96731.73;;;21.59;84.77
76815;BME280;65768;49.906;19.384;2023-08-06T01:59:34;96732.15;;;21.66;84.51
76815;BME280;65768;49.906;19.384;2023-08-06T02:02:03;96731.64;;;21.76;84.06
76815;BME280;65768;49.906;19.384;2023-08-06T02:04:32;96735.34;;;21.80;83.94
76815;BME280;65768;49.906;19.384;2023-08-06T02:07:03;96734.90;;;21.78;83.90
76815;BME280;65768;49.906;19.384;2023-08-06T02:09:32;96721.25;;;21.54;84.64
76815;BME280;65768;49.906;19.384;2023-08-06T02:12:02;96725.35;;;21.62;84.86
76815;BME280;65768;49.906;19.384;2023-08-06T02:14:31;96716.97;;;21.65;84.45
76815;BME280;65768;49.906;19.384;2023-08-06T02:17:00;96713.26;;;21.70;84.39
76815;BME280;65768;49.906;19.384;2023-08-06T02:19:29;96714.86;;;21.75;84.35
76815;BME280;65768;49.906;19.384;2023-08-06T02:21:58;96712.57;;;21.77;84.14
76815;BME280;65768;49.906;19.384;2023-08-06T02:24:27;96710.25;;;21.78;84.10
76815;BME280;65768;49.906;19.384;2023-08-06T02:26:56;96707.46;;;21.80;84.17
76815;BME280;65768;49.906;19.384;2023-08-06T02:29:25;96704.92;;;21.80;84.00
76815;BME280;65768;49.906;19.384;2023-08-06T02:31:53;96702.92;;;21.81;83.80
76815;BME280;65768;49.906;19.384;2023-08-06T02:34:22;96699.79;;;21.85;83.77
76815;BME280;65768;49.906;19.384;2023-08-06T02:36:51;96691.31;;;21.85;83.62
76815;BME280;65768;49.906;19.384;2023-08-06T02:39:20;96689.35;;;21.77;83.67
76815;BME280;65768;49.906;19.384;2023-08-06T02:41:50;96681.91;;;21.77;83.66
76815;BME280;65768;49.906;19.384;2023-08-06T02:44:19;96683.42;;;21.70;83.88
76815;BME280;65768;49.906;19.384;2023-08-06T02:46:48;96681.52;;;21.75;83.92
76815;BME280;65768;49.906;19.384;2023-08-06T02:49:17;96669.02;;;21.73;83.82
76815;BME280;65768;49.906;19.384;2023-08-06T02:51:47;96665.24;;;21.64;83.80
76815;BME280;65768;49.906;19.384;2023-08-06T02:54:16;96670.19;;;21.57;84.25
76815;BME280;65768;49.906;19.384;2023-08-06T02:56:45;96674.39;;;21.63;84.00
76815;BME280;65768;49.906;19.384;2023-08-06T02:59:15;96664.55;;;21.57;83.98
76815;BME280;65768;49.906;19.384;2023-08-06T03:01:44;96659.43;;;21.53;84.21
76815;BME280;65768;49.906;19.384;2023-08-06T03:04:13;96653.20;;;21.51;84.68
76815;BME280;65768;49.906;19.384;2023-08-06T03:06:43;96657.91;;;21.52;84.32
76815;BME280;65768;49.906;19.384;2023-08-06T03:09:12;96658.05;;;21.58;84.29
76815;BME280;65768;49.906;19.384;2023-08-06T03:11:42;96657.31;;;21.61;83.77
76815;BME280;65768;49.906;19.384;2023-08-06T03:14:10;96652.23;;;21.55;83.92
76815;BME280;65768;49.906;19.384;2023-08-06T03:16:38;96651.98;;;21.56;84.05
76815;BME280;65768;49.906;19.384;2023-08-06T03:19:07;96657.63;;;21.56;84.17
76815;BME280;65768;49.906;19.384;2023-08-06T03:21:37;96648.64;;;21.56;84.20
76815;BME280;65768;49.906;19.384;2023-08-06T03:24:05;96645.17;;;21.55;84.22
76815;BME280;65768;49.906;19.384;2023-08-06T03:26:33;96647.56;;;21.61;84.18
76815;BME280;65768;49.906;19.384;2023-08-06T03:29:02;96648.29;;;21.63;83.97
76815;BME280;65768;49.906;19.384;2023-08-06T03:31:31;96648.01;;;21.59;83.70
76815;BME280;65768;49.906;19.384;2023-08-06T03:33:59;96645.48;;;21.47;84.43
76815;BME280;65768;49.906;19.384;2023-08-06T03:36:28;96640.85;;;21.45;84.44
76815;BME280;65768;49.906;19.384;2023-08-06T03:38:56;96647.45;;;21.36;84.86
76815;BME280;65768;49.906;19.384;2023-08-06T03:41:25;96647.68;;;21.49;84.82
76815;BME280;65768;49.906;19.384;2023-08-06T03:43:54;96648.64;;;21.53;84.27
76815;BME280;65768;49.906;19.384;2023-08-06T03:46:22;96646.86;;;21.45;84.21
76815;BME280;65768;49.906;19.384;2023-08-06T03:48:51;96635.18;;;21.26;85.05
76815;BME280;65768;49.906;19.384;2023-08-06T03:51:21;96630.80;;;21.28;85.58
76815;BME280;65768;49.906;19.384;2023-08-06T03:53:49;96633.52;;;21.27;85.53
76815;BME280;65768;49.906;19.384;2023-08-06T03:56:17;96623.80;;;21.38;85.29
76815;BME280;65768;49.906;19.384;2023-08-06T03:58:46;96621.70;;;21.42;85.10
76815;BME280;65768;49.906;19.384;2023-08-06T04:01:16;96621.34;;;21.40;85.19
76815;BME280;65768;49.906;19.384;2023-08-06T04:03:46;96616.77;;;21.34;85.35
76815;BME280;65768;49.906;19.384;2023-08-06T04:06:15;96612.08;;;21.22;85.60
76815;BME280;65768;49.906;19.384;2023-08-06T04:08:44;96610.02;;;21.31;85.50
76815;BME280;65768;49.906;19.384;2023-08-06T04:11:12;96606.17;;;21.36;85.14
76815;BME280;65768;49.906;19.384;2023-08-06T04:13:45;96605.79;;;21.44;84.96
76815;BME280;65768;49.906;19.384;2023-08-06T04:16:15;96606.98;;;21.40;85.07
76815;BME280;65768;49.906;19.384;2023-08-06T04:18:44;96600.22;;;21.41;84.90
76815;BME280;65768;49.906;19.384;2023-08-06T04:21:15;96594.61;;;21.36;84.92
76815;BME280;65768;49.906;19.384;2023-08-06T04:23:44;96593.26;;;21.36;85.09
76815;BME280;65768;49.906;19.384;2023-08-06T04:26:13;96583.85;;;21.33;85.35
76815;BME280;65768;49.906;19.384;2023-08-06T04:28:43;96578.75;;;21.43;84.71
76815;BME280;65768;49.906;19.384;2023-08-06T04:31:11;96577.93;;;21.39;84.64
76815;BME280;65768;49.906;19.384;2023-08-06T04:33:40;96574.33;;;21.17;85.29
76815;BME280;65768;49.906;19.384;2023-08-06T04:36:09;96566.89;;;20.99;86.76
76815;BME280;65768;49.906;19.384;2023-08-06T04:38:38;96567.12;;;21.16;86.21
76815;BME280;65768;49.906;19.384;2023-08-06T04:41:11;96570.12;;;21.29;85.56
76815;BME280;65768;49.906;19.384;2023-08-06T04:43:40;96572.05;;;21.14;85.94
76815;BME280;65768;49.906;19.384;2023-08-06T04:46:10;96566.79;;;21.16;85.94
76815;BME280;65768;49.906;19.384;2023-08-06T04:48:39;96563.85;;;21.14;86.19
76815;BME280;65768;49.906;19.384;2023-08-06T04:51:08;96556.77;;;21.09;86.02
76815;BME280;65768;49.906;19.384;2023-08-06T04:53:38;96555.30;;;21.02;86.27
76815;BME280;65768;49.906;19.384;2023-08-06T04:56:07;96553.11;;;20.82;87.37
76815;BME280;65768;49.906;19.384;2023-08-06T04:58:37;96548.43;;;20.78;87.70
76815;BME280;65768;49.906;19.384;2023-08-06T05:01:06;96539.31;;;20.82;87.27
76815;BME280;65768;49.906;19.384;2023-08-06T05:03:35;96537.96;;;21.04;86.23
76815;BME280;65768;49.906;19.384;2023-08-06T05:06:04;96537.02;;;20.90;86.23
76815;BME280;65768;49.906;19.384;2023-08-06T05:08:34;96537.19;;;20.74;86.55
76815;BME280;65768;49.906;19.384;2023-08-06T05:11:03;96539.89;;;20.68;86.49
76815;BME280;65768;49.906;19.384;2023-08-06T05:13:31;96545.70;;;20.90;86.11
76815;BME280;65768;49.906;19.384;2023-08-06T05:16:01;96546.09;;;20.97;85.45
76815;BME280;65768;49.906;19.384;2023-08-06T05:18:31;96544.20;;;21.06;85.04
76815;BME280;65768;49.906;19.384;2023-08-06T05:20:59;96539.91;;;21.10;84.62
76815;BME280;65768;49.906;19.384;2023-08-06T05:23:28;96532.70;;;21.01;84.76
76815;BME280;65768;49.906;19.384;2023-08-06T05:25:57;96525.84;;;20.93;85.26
76815;BME280;65768;49.906;19.384;2023-08-06T05:28:26;96528.30;;;20.85;85.40
76815;BME280;65768;49.906;19.384;2023-08-06T05:30:54;96531.17;;;20.98;85.03
76815;BME280;65768;49.906;19.384;2023-08-06T05:33:22;96525.05;;;20.96;84.89
76815;BME280;65768;49.906;19.384;2023-08-06T05:35:52;96527.54;;;20.96;84.41
76815;BME280;65768;49.906;19.384;2023-08-06T05:38:20;96526.61;;;20.92;84.50
76815;BME280;65768;49.906;19.384;2023-08-06T05:40:49;96527.20;;;20.86;83.40
76815;BME280;65768;49.906;19.384;2023-08-06T05:43:17;96531.75;;;20.86;83.24
76815;BME280;65768;49.906;19.384;2023-08-06T05:45:48;96537.26;;;20.68;83.69
76815;BME280;65768;49.906;19.384;2023-08-06T05:48:19;96530.46;;;20.09;85.58
76815;BME280;65768;49.906;19.384;2023-08-06T05:50:49;96519.84;;;20.29;85.23
76815;BME280;65768;49.906;19.384;2023-08-06T05:53:18;96519.08;;;20.51;84.54
76815;BME280;65768;49.906;19.384;2023-08-06T05:55:47;96516.12;;;20.34;84.63
76815;BME280;65768;49.906;19.384;2023-08-06T05:58:17;96512.02;;;20.21;85.29
76815;BME280;65768;49.906;19.384;2023-08-06T06:00:47;96513.19;;;20.27;85.39
76815;BME280;65768;49.906;19.384;2023-08-06T06:07:05;96502.80;;;20.34;84.33
76815;BME280;65768;49.906;19.384;2023-08-06T06:09:34;96503.59;;;20.33;84.38
76815;BME280;65768;49.906;19.384;2023-08-06T06:12:04;96504.66;;;20.39;84.10
76815;BME280;65768;49.906;19.384;2023-08-06T06:14:33;96497.00;;;20.34;84.24
76815;BME280;65768;49.906;19.384;2023-08-06T06:17:03;96488.16;;;20.39;84.03
76815;BME280;65768;49.906;19.384;2023-08-06T06:19:31;96486.39;;;20.39;83.89
76815;BME280;65768;49.906;19.384;2023-08-06T06:22:02;96482.30;;;20.48;84.16
76815;BME280;65768;49.906;19.384;2023-08-06T06:24:31;96474.90;;;20.55;83.61
76815;BME280;65768;49.906;19.384;2023-08-06T06:27:00;96476.02;;;20.46;83.29
76815;BME280;65768;49.906;19.384;2023-08-06T06:29:30;96472.47;;;20.49;83.47
76815;BME280;65768;49.906;19.384;2023-08-06T06:35:49;96477.30;;;19.89;85.10
76815;BME280;65768;49.906;19.384;2023-08-06T06:38:18;96480.62;;;19.93;84.69
76815;BME280;65768;49.906;19.384;2023-08-06T06:44:48;96495.46;;;19.79;84.90
76815;BME280;65768;49.906;19.384;2023-08-06T06:47:18;96507.85;;;19.59;85.08
76815;BME280;65768;49.906;19.384;2023-08-06T06:53:47;96504.39;;;18.95;87.84
76815;BME280;65768;49.906;19.384;2023-08-06T06:59:52;96502.69;;;18.91;88.16
76815;BME280;65768;49.906;19.384;2023-08-06T07:02:21;96491.30;;;18.36;90.68
76815;BME280;65768;49.906;19.384;2023-08-06T07:04:50;96491.59;;;18.46;90.74
76815;BME280;65768;49.906;19.384;2023-08-06T07:07:22;96497.52;;;18.53;91.19
76815;BME280;65768;49.906;19.384;2023-08-06T07:09:50;96494.20;;;18.41;90.47
76815;BME280;65768;49.906;19.384;2023-08-06T07:12:20;96494.23;;;18.55;89.91
76815;BME280;65768;49.906;19.384;2023-08-06T07:14:50;96503.59;;;18.40;89.71
76815;BME280;65768;49.906;19.384;2023-08-06T07:17:20;96507.13;;;18.24;90.57
76815;BME280;65768;49.906;19.384;2023-08-06T07:19:53;96513.00;;;18.51;89.59
76815;BME280;65768;49.906;19.384;2023-08-06T07:22:22;96515.62;;;18.60;88.68
76815;BME280;65768;49.906;19.384;2023-08-06T07:24:53;96502.35;;;18.22;89.30
76815;BME280;65768;49.906;19.384;2023-08-06T07:27:24;96483.20;;;18.23;89.82
76815;BME280;65768;49.906;19.384;2023-08-06T07:29:53;96469.51;;;18.32;89.42
76815;BME280;65768;49.906;19.384;2023-08-06T07:32:23;96475.45;;;17.99;89.95
76815;BME280;65768;49.906;19.384;2023-08-06T07:34:53;96490.33;;;18.28;89.69
76815;BME280;65768;49.906;19.384;2023-08-06T07:37:28;96496.48;;;18.86;87.42
76815;BME280;65768;49.906;19.384;2023-08-06T07:39:57;96504.91;;;19.21;86.58
76815;BME280;65768;49.906;19.384;2023-08-06T07:42:26;96509.35;;;19.18;85.18
76815;BME280;65768;49.906;19.384;2023-08-06T07:44:56;96509.90;;;19.29;85.18
76815;BME280;65768;49.906;19.384;2023-08-06T07:47:26;96509.08;;;19.06;85.69
76815;BME280;65768;49.906;19.384;2023-08-06T07:49:56;96514.53;;;18.88;85.65
76815;BME280;65768;49.906;19.384;2023-08-06T07:52:25;96513.77;;;18.65;86.17
76815;BME280;65768;49.906;19.384;2023-08-06T07:54:54;96510.20;;;18.59;86.10
76815;BME280;65768;49.906;19.384;2023-08-06T07:57:23;96498.09;;;18.52;86.23
76815;BME280;65768;49.906;19.384;2023-08-06T07:59:53;96494.05;;;18.76;85.91
76815;BME280;65768;49.906;19.384;2023-08-06T08:02:24;96494.59;;;18.79;85.45
76815;BME280;65768;49.906;19.384;2023-08-06T08:04:54;96495.08;;;18.73;85.17
76815;BME280;65768;49.906;19.384;2023-08-06T08:07:24;96491.96;;;18.70;85.04
76815;BME280;65768;49.906;19.384;2023-08-06T08:09:56;96500.08;;;18.34;85.82
76815;BME280;65768;49.906;19.384;2023-08-06T08:12:26;96504.36;;;18.90;85.23
76815;BME280;65768;49.906;19.384;2023-08-06T08:15:04;96513.02;;;19.10;83.37
76815;BME280;65768;49.906;19.384;2023-08-06T08:17:33;96510.13;;;19.05;83.28
76815;BME280;65768;49.906;19.384;2023-08-06T08:20:04;96509.86;;;18.41;84.94
76815;BME280;65768;49.906;19.384;2023-08-06T08:22:34;96507.77;;;18.47;84.89
76815;BME280;65768;49.906;19.384;2023-08-06T08:25:02;96502.70;;;18.19;86.19
76815;BME280;65768;49.906;19.384;2023-08-06T08:27:36;96504.98;;;18.56;85.73
76815;BME280;65768;49.906;19.384;2023-08-06T08:30:08;96506.95;;;18.52;85.29
76815;BME280;65768;49.906;19.384;2023-08-06T08:32:38;96502.87;;;18.52;85.27
76815;BME280;65768;49.906;19.384;2023-08-06T08:35:09;96502.18;;;18.37;85.44
76815;BME280;65768;49.906;19.384;2023-08-06T08:37:39;96510.55;;;18.23;85.36
76815;BME280;65768;49.906;19.384;2023-08-06T08:40:09;96518.17;;;18.22;85.69
76815;BME280;65768;49.906;19.384;2023-08-06T08:42:40;96513.11;;;18.28;85.20
76815;BME280;65768;49.906;19.384;2023-08-06T08:45:14;96509.55;;;17.88;85.82
76815;BME280;65768;49.906;19.384;2023-08-06T08:47:46;96501.02;;;17.87;86.54
76815;BME280;65768;49.906;19.384;2023-08-06T08:50:17;96502.27;;;18.05;86.38
76815;BME280;65768;49.906;19.384;2023-08-06T08:52:55;96500.93;;;17.65;87.04
76815;BME280;65768;49.906;19.384;2023-08-06T08:55:33;96489.34;;;17.81;86.98
76815;BME280;65768;49.906;19.384;2023-08-06T08:58:02;96489.59;;;17.47;87.94
76815;BME280;65768;49.906;19.384;2023-08-06T09:00:31;96490.21;;;17.59;87.92
76815;BME280;65768;49.906;19.384;2023-08-06T09:03:02;96484.36;;;17.94;87.00
76815;BME280;65768;49.906;19.384;2023-08-06T09:05:43;96498.55;;;18.26;85.57
76815;BME280;65768;49.906;19.384;2023-08-06T09:08:18;96503.16;;;18.08;85.29
76815;BME280;65768;49.906;19.384;2023-08-06T09:10:50;96504.48;;;18.00;85.56
76815;BME280;65768;49.906;19.384;2023-08-06T09:13:23;96500.52;;;18.32;84.61
76815;BME280;65768;49.906;19.384;2023-08-06T09:15:52;96501.44;;;18.58;84.31
76815;BME280;65768;49.906;19.384;2023-08-06T09:18:26;96491.90;;;18.32;84.91
76815;BME280;65768;49.906;19.384;2023-08-06T09:20:58;96489.93;;;18.14;85.21
76815;BME280;65768;49.906;19.384;2023-08-06T09:23:32;96504.55;;;17.89;86.26
76815;BME280;65768;49.906;19.384;2023-08-06T09:26:03;96492.60;;;18.13;85.58
76815;BME280;65768;49.906;19.384;2023-08-06T09:28:39;96495.22;;;18.23;85.50
76815;BME280;65768;49.906;19.384;2023-08-06T09:31:09;96502.38;;;18.09;85.11
76815;BME280;65768;49.906;19.384;2023-08-06T09:33:39;96507.83;;;18.28;84.58
76815;BME280;65768;49.906;19.384;2023-08-06T09:36:11;96503.27;;;18.18;84.74
76815;BME280;65768;49.906;19.384;2023-08-06T09:38:41;96502.77;;;18.33;84.38
76815;BME280;65768;49.906;19.384;2023-08-06T09:41:26;96499.86;;;18.13;84.76
76815;BME280;65768;49.906;19.384;2023-08-06T09:43:56;96500.64;;;17.90;85.92
76815;BME280;65768;49.906;19.384;2023-08-06T09:46:28;96499.42;;;18.14;85.10
76815;BME280;65768;49.906;19.384;2023-08-06T09:49:00;96502.52;;;17.84;86.28
76815;BME280;65768;49.906;19.384;2023-08-06T09:51:29;96505.59;;;18.36;84.79
76815;BME280;65768;49.906;19.384;2023-08-06T09:53:59;96514.19;;;18.46;83.78
76815;BME280;65768;49.906;19.384;2023-08-06T09:56:30;96516.10;;;18.07;84.97
76815;BME280;65768;49.906;19.384;2023-08-06T09:59:05;96523.85;;;17.85;85.24
76815;BME280;65768;49.906;19.384;2023-08-06T10:01:37;96528.68;;;18.02;85.19
76815;BME280;65768;49.906;19.384;2023-08-06T10:04:06;96522.77;;;18.17;84.33
76815;BME280;65768;49.906;19.384;2023-08-06T10:06:40;96524.59;;;18.21;84.40
76815;BME280;65768;49.906;19.384;2023-08-06T10:09:11;96528.73;;;18.36;84.41
76815;BME280;65768;49.906;19.384;2023-08-06T10:11:42;96532.00;;;18.37;83.94
76815;BME280;65768;49.906;19.384;2023-08-06T10:14:30;96528.89;;;18.20;84.16
76815;BME280;65768;49.906;19.384;2023-08-06T10:17:02;96531.68;;;18.21;83.95
76815;BME280;65768;49.906;19.384;2023-08-06T10:19:32;96530.06;;;18.12;84.08
76815;BME280;65768;49.906;19.384;2023-08-06T10:22:12;96532.09;;;17.66;85.26
76815;BME280;65768;49.906;19.384;2023-08-06T10:24:47;96530.30;;;17.86;85.44
76815;BME280;65768;49.906;19.384;2023-08-06T10:30:44;96539.94;;;18.25;84.78
76815;BME280;65768;49.906;19.384;2023-08-06T10:33:14;96544.95;;;18.36;84.11
76815;BME280;65768;49.906;19.384;2023-08-06T10:35:47;96544.03;;;18.36;83.86
76815;BME280;65768;49.906;19.384;2023-08-06T10:38:24;96544.94;;;18.45;83.54
76815;BME280;65768;49.906;19.384;2023-08-06T10:41:03;96545.66;;;17.85;84.21
76815;BME280;65768;49.906;19.384;2023-08-06T10:43:36;96548.24;;;17.44;85.64
76815;BME280;65768;49.906;19.384;2023-08-06T10:46:28;96545.24;;;17.54;85.85
76815;BME280;65768;49.906;19.384;2023-08-06T10:48:58;96545.46;;;17.30;86.65
76815;BME280;65768;49.906;19.384;2023-08-06T10:51:29;96550.61;;;17.60;86.13
76815;BME280;65768;49.906;19.384;2023-08-06T10:53:59;96549.19;;;17.27;86.88
76815;BME280;65768;49.906;19.384;2023-08-06T10:56:29;96550.27;;;17.59;86.34
76815;BME280;65768;49.906;19.384;2023-08-06T10:58:58;96554.63;;;17.73;85.84
76815;BME280;65768;49.906;19.384;2023-08-06T11:01:33;96557.51;;;17.42;86.12
76815;BME280;65768;49.906;19.384;2023-08-06T11:04:05;96560.70;;;17.36;86.70
76815;BME280;65768;49.906;19.384;2023-08-06T11:06:35;96558.35;;;17.46;86.51
76815;BME280;65768;49.906;19.384;2023-08-06T11:09:05;96557.49;;;17.23;87.46
76815;BME280;65768;49.906;19.384;2023-08-06T11:11:34;96558.02;;;17.43;86.75
76815;BME280;65768;49.906;19.384;2023-08-06T11:14:05;96554.68;;;17.72;86.03
76815;BME280;65768;49.906;19.384;2023-08-06T11:16:35;96554.91;;;17.94;85.62
76815;BME280;65768;49.906;19.384;2023-08-06T11:19:04;96557.99;;;17.89;85.00
76815;BME280;65768;49.906;19.384;2023-08-06T11:21:34;96555.77;;;17.84;85.53
76815;BME280;65768;49.906;19.384;2023-08-06T11:24:04;96556.98;;;17.68;85.82
76815;BME280;65768;49.906;19.384;2023-08-06T11:26:37;96560.20;;;17.55;86.59
76815;BME280;65768;49.906;19.384;2023-08-06T11:29:09;96565.18;;;17.83;85.48
76815;BME280;65768;49.906;19.384;2023-08-06T11:31:39;96567.68;;;17.43;86.81
76815;BME280;65768;49.906;19.384;2023-08-06T11:34:08;96566.97;;;17.76;86.00
76815;BME280;65768;49.906;19.384;2023-08-06T11:36:41;96573.61;;;17.93;85.33
76815;BME280;65768;49.906;19.384;2023-08-06T11:39:11;96587.61;;;18.05;84.71
76815;BME280;65768;49.906;19.384;2023-08-06T11:41:41;96597.77;;;18.00;84.63
76815;BME280;65768;49.906;19.384;2023-08-06T11:44:11;96603.16;;;17.92;84.74
76815;BME280;65768;49.906;19.384;2023-08-06T11:46:55;96606.45;;;17.63;85.38
76815;BME280;65768;49.906;19.384;2023-08-06T11:49:59;96610.66;;;17.53;85.58
76815;BME280;65768;49.906;19.384;2023-08-06T11:52:39;96609.27;;;17.83;85.10
76815;BME280;65768;49.906;19.384;2023-08-06T11:55:09;96608.25;;;17.52;85.47
76815;BME280;65768;49.906;19.384;2023-08-06T11:57:44;96604.91;;;17.59;85.78
76815;BME280;65768;49.906;19.384;2023-08-06T12:00:15;96601.56;;;17.89;85.22
76815;BME280;65768;49.906;19.384;2023-08-06T12:02:47;96605.79;;;17.89;84.41
76815;BME280;65768;49.906;19.384;2023-08-06T12:05:20;96605.11;;;18.01;84.80
76815;BME280;65768;49.906;19.384;2023-08-06T12:07:56;96610.91;;;17.98;84.35
76815;BME280;65768;49.906;19.384;2023-08-06T12:10:28;96616.45;;;17.83;84.66
76815;BME280;65768;49.906;19.384;2023-08-06T12:12:58;96617.19;;;17.66;85.22
76815;BME280;65768;49.906;19.384;2023-08-06T12:15:28;96615.71;;;17.71;85.54
76815;BME280;65768;49.906;19.384;2023-08-06T12:17:57;96616.98;;;17.64;85.83
76815;BME280;65768;49.906;19.384;2023-08-06T12:20:26;96622.29;;;18.03;84.92
76815;BME280;65768;49.906;19.384;2023-08-06T12:22:57;96626.16;;;17.53;84.87
76815;BME280;65768;49.906;19.384;2023-08-06T12:25:27;96625.69;;;17.86;84.55
76815;BME280;65768;49.906;19.384;2023-08-06T12:27:59;96619.54;;;17.85;84.68
76815;BME280;65768;49.906;19.384;2023-08-06T12:30:31;96611.44;;;18.11;84.08
76815;BME280;65768;49.906;19.384;2023-08-06T12:33:00;96605.94;;;18.27;83.31
76815;BME280;65768;49.906;19.384;2023-08-06T12:35:29;96609.95;;;18.62;82.46
76815;BME280;65768;49.906;19.384;2023-08-06T12:38:00;96612.44;;;18.59;81.46
76815;BME280;65768;49.906;19.384;2023-08-06T12:40:29;96614.84;;;18.63;81.56
76815;BME280;65768;49.906;19.384;2023-08-06T12:42:59;96614.98;;;19.53;79.90
76815;BME280;65768;49.906;19.384;2023-08-06T12:45:29;96622.27;;;19.35;79.11
76815;BME280;65768;49.906;19.384;2023-08-06T12:48:00;96622.74;;;19.24;78.93
76815;BME280;65768;49.906;19.384;2023-08-06T12:50:29;96630.15;;;18.57;81.14
76815;BME280;65768;49.906;19.384;2023-08-06T12:52:58;96640.64;;;18.90;80.20
76815;BME280;65768;49.906;19.384;2023-08-06T12:55:33;96644.06;;;18.98;79.84
76815;BME280;65768;49.906;19.384;2023-08-06T12:58:01;96641.95;;;18.98;79.72
76815;BME280;65768;49.906;19.384;2023-08-06T13:00:32;96643.63;;;18.93;79.92
76815;BME280;65768;49.906;19.384;2023-08-06T13:03:03;96647.10;;;18.48;81.84
76815;BME280;65768;49.906;19.384;2023-08-06T13:05:33;96648.21;;;18.44;81.95
76815;BME280;65768;49.906;19.384;2023-08-06T13:08:04;96657.68;;;18.98;79.94
76815;BME280;65768;49.906;19.384;2023-08-06T13:10:34;96666.10;;;18.95;80.00
76815;BME280;65768;49.906;19.384;2023-08-06T13:13:04;96671.19;;;18.40;81.02
76815;BME280;65768;49.906;19.384;2023-08-06T13:15:36;96672.87;;;18.67;80.79
76815;BME280;65768;49.906;19.384;2023-08-06T13:18:08;96672.23;;;18.66;80.49
76815;BME280;65768;49.906;19.384;2023-08-06T13:20:39;96673.33;;;18.71;79.90
76815;BME280;65768;49.906;19.384;2023-08-06T13:23:09;96677.30;;;18.85;79.36
76815;BME280;65768;49.906;19.384;2023-08-06T13:25:38;96678.70;;;18.60;79.01
76815;BME280;65768;49.906;19.384;2023-08-06T13:28:10;96677.02;;;18.72;79.66
76815;BME280;65768;49.906;19.384;2023-08-06T13:30:38;96679.02;;;18.80;80.41
76815;BME280;65768;49.906;19.384;2023-08-06T13:33:11;96681.27;;;18.49;80.79
76815;BME280;65768;49.906;19.384;2023-08-06T13:35:40;96681.08;;;18.21;81.71
76815;BME280;65768;49.906;19.384;2023-08-06T13:38:10;96681.70;;;18.10;82.28